createdAt,value
2022-08-23T00:02:35.483Z,100716.34
2022-08-23T00:07:43.020Z,100711.84
2022-08-23T00:12:46.267Z,100713.94
2022-08-23T00:17:48.214Z,100713.13
2022-08-23T00:22:50.270Z,100704.66
2022-08-23T00:27:52.562Z,100704.34
2022-08-23T00:32:57.877Z,100703.72
2022-08-23T00:38:33.231Z,100695.41
2022-08-23T00:43:34.640Z,100688.25
2022-08-23T00:48:38.354Z,100696.28
2022-08-23T00:53:50.571Z,100704.00
2022-08-23T00:58:52.705Z,100710.09
2022-08-23T01:04:05.114Z,100712.97
2022-08-23T01:09:11.187Z,100717.81
2022-08-23T01:14:22.112Z,100714.09
2022-08-23T01:19:35.739Z,100716.53
2022-08-23T01:25:07.814Z,100718.06
2022-08-23T01:30:01.943Z,100716.66
2022-08-23T01:35:04.436Z,100723.94
2022-08-23T01:40:06.880Z,100728.03
2022-08-23T01:45:14.174Z,100726.41
2022-08-23T01:50:16.482Z,100725.03
2022-08-23T01:55:18.755Z,100728.97
2022-08-23T02:00:27.222Z,100730.72
2022-08-23T02:05:31.408Z,100736.59
2022-08-23T02:10:33.111Z,100740.22
2022-08-23T02:15:34.760Z,100731.53
2022-08-23T02:20:36.970Z,100741.91
2022-08-23T02:25:39.355Z,100745.50
2022-08-23T02:30:41.397Z,100736.38
2022-08-23T02:35:45.691Z,100742.94
2022-08-23T02:40:47.918Z,100739.50
2022-08-23T02:45:55.420Z,100746.66
2022-08-23T02:51:03.854Z,100745.63
2022-08-23T02:56:06.351Z,100754.72
2022-08-23T03:01:23.186Z,100757.84
2022-08-23T03:06:26.817Z,100759.81
2022-08-23T03:11:28.822Z,100764.66
2022-08-23T03:16:30.890Z,100759.69
2022-08-23T03:21:32.606Z,100760.84
2022-08-23T03:26:35.004Z,100751.22
2022-08-23T03:31:37.139Z,100759.41
2022-08-23T03:36:46.388Z,100756.66
2022-08-23T03:41:48.902Z,100762.78
2022-08-23T03:46:50.576Z,100775.31
2022-08-23T03:51:52.213Z,100774.94
2022-08-23T03:57:07.454Z,100773.81
2022-08-23T04:02:10.534Z,100792.53
2022-08-23T04:07:12.382Z,100798.81
2022-08-23T04:12:17.538Z,100797.66
2022-08-23T04:17:20.865Z,100801.94
2022-08-23T04:22:23.694Z,100811.47
2022-08-23T04:27:25.860Z,100816.63
2022-08-23T04:32:28.686Z,100820.25
2022-08-23T04:37:32.932Z,100823.81
2022-08-23T04:42:35.426Z,100827.28
2022-08-23T04:47:37.263Z,100833.63
2022-08-23T04:52:39.272Z,100842.59
2022-08-23T04:57:41.260Z,100857.16
2022-08-23T05:02:44.269Z,100855.78
2022-08-23T05:07:45.914Z,100855.06
2022-08-23T05:12:48.485Z,100864.44
2022-08-23T05:17:52.329Z,100873.09
2022-08-23T05:22:54.651Z,100874.88
2022-08-23T05:28:07.813Z,100883.03
2022-08-23T05:33:09.449Z,100894.34
2022-08-23T05:38:11.511Z,100888.03
2022-08-23T05:43:14.143Z,100889.13
2022-08-23T05:48:15.817Z,100897.72
2022-08-23T05:53:23.923Z,100899.72
2022-08-23T05:58:26.874Z,100911.22
2022-08-23T06:03:28.447Z,100909.31
2022-08-23T06:08:31.127Z,100920.81
2022-08-23T06:13:34.557Z,100917.69
2022-08-23T06:18:36.519Z,100923.94
2022-08-23T06:23:57.825Z,100928.97
2022-08-23T06:29:05.663Z,100932.94
2022-08-23T06:34:10.062Z,100929.66
2022-08-23T06:39:36.773Z,100935.59
2022-08-23T06:44:57.964Z,100931.88
2022-08-23T06:50:11.900Z,100930.41
2022-08-23T06:55:32.036Z,100940.34
2022-08-23T07:01:48.719Z,100943.56
2022-08-23T07:07:11.129Z,100943.41
2022-08-23T07:12:13.476Z,100943.19
2022-08-23T07:17:17.564Z,100948.56
2022-08-23T07:22:19.748Z,100956.38
2022-08-23T07:27:21.351Z,100962.66
2022-08-23T07:32:33.167Z,100967.09
2022-08-23T07:37:45.085Z,100973.53
2022-08-23T07:42:47.774Z,100972.22
2022-08-23T07:47:50.649Z,100970.50
2022-08-23T07:52:53.246Z,100968.03
2022-08-23T07:57:55.073Z,100973.19
2022-08-23T08:03:12.495Z,100979.03
2022-08-23T08:08:37.137Z,100972.31
2022-08-23T08:13:41.082Z,100972.84
2022-08-23T08:18:44.228Z,100985.66
2022-08-23T08:24:07.621Z,100981.94
2022-08-23T08:29:18.142Z,100974.91
2022-08-23T08:34:20.678Z,100982.22
2022-08-23T08:39:26.258Z,100982.38
2022-08-23T08:44:37.179Z,100973.56
2022-08-23T08:49:48.742Z,100980.50
2022-08-23T08:55:12.357Z,100979.94
2022-08-23T09:00:26.196Z,100972.53
2022-08-23T09:05:33.280Z,100980.66
2022-08-23T09:10:45.865Z,100978.38
2022-08-23T09:16:03.170Z,100980.19
2022-08-23T09:21:08.138Z,100979.88
2022-08-23T09:26:36.442Z,100974.75
2022-08-23T09:31:38.166Z,100969.19
2022-08-23T09:36:39.986Z,100967.59
2022-08-23T09:41:41.866Z,100972.72
2022-08-23T09:46:45.035Z,100969.34
2022-08-23T09:51:54.162Z,100962.44
2022-08-23T09:57:09.102Z,100968.97
2022-08-23T10:02:30.098Z,100961.84
2022-08-23T10:07:43.854Z,100954.16
2022-08-23T10:12:50.662Z,100955.13
2022-08-23T10:18:34.037Z,100951.97
2022-08-23T10:24:05.617Z,100957.09
2022-08-23T10:29:35.731Z,100954.97
2022-08-23T10:35:16.012Z,100955.44
2022-08-23T10:40:25.621Z,100950.50
2022-08-23T10:45:33.091Z,100946.22
2022-08-23T10:51:01.842Z,100938.00
2022-08-23T10:56:04.787Z,100939.97
2022-08-23T11:01:15.851Z,100932.09
2022-08-23T11:06:27.562Z,100927.44
2022-08-23T11:11:58.861Z,100918.50
2022-08-23T11:17:25.269Z,100928.19
2022-08-23T11:22:31.229Z,100930.91
2022-08-23T11:27:43.301Z,100932.81
2022-08-23T11:32:49.759Z,100912.34
2022-08-23T11:37:56.470Z,100911.25
2022-08-23T11:43:07.409Z,100917.16
2022-08-23T11:48:36.179Z,100917.97
2022-08-23T11:53:40.656Z,100900.66
2022-08-23T11:59:14.477Z,100890.59
2022-08-23T12:04:47.901Z,100893.66
2022-08-23T12:09:52.085Z,100897.75
2022-08-23T12:14:57.553Z,100884.78
2022-08-23T12:19:59.109Z,100865.38
2022-08-23T12:25:06.013Z,100876.63
2022-08-23T12:30:29.033Z,100869.59
2022-08-23T12:35:49.307Z,100873.44
2022-08-23T12:40:54.446Z,100873.28
2022-08-23T12:45:58.103Z,100867.06
2022-08-23T12:51:01.151Z,100872.69
2022-08-23T12:56:32.009Z,100870.94
2022-08-23T13:01:37.539Z,100865.84
2022-08-23T13:07:02.744Z,100869.50
2022-08-23T13:12:07.329Z,100865.94
2022-08-23T13:17:27.281Z,100863.47
2022-08-23T13:22:31.040Z,100862.69
2022-08-23T13:27:44.915Z,100853.59
2022-08-23T13:33:07.858Z,100855.63
2022-08-23T13:38:20.521Z,100855.22
2022-08-23T13:43:49.760Z,100853.44
2022-08-23T13:49:00.936Z,100841.16
2022-08-23T13:54:06.135Z,100839.00
2022-08-23T13:59:31.338Z,100840.09
2022-08-23T14:04:34.585Z,100840.81
2022-08-23T14:09:37.804Z,100844.22
2022-08-23T14:14:40.660Z,100833.81
2022-08-23T14:25:05.949Z,100823.81
2022-08-23T14:30:10.588Z,100829.03
2022-08-23T14:35:12.218Z,100836.06
2022-08-23T14:40:14.872Z,100840.47
2022-08-23T14:45:18.185Z,100837.81
2022-08-23T14:50:19.864Z,100835.50
2022-08-23T14:55:24.838Z,100838.50
2022-08-23T15:00:26.787Z,100833.88
2022-08-23T15:05:29.149Z,100834.47
2022-08-23T15:15:53.468Z,100835.34
2022-08-23T15:20:55.123Z,100834.03
2022-08-23T15:25:56.828Z,100828.19
2022-08-23T15:30:58.510Z,100822.53
2022-08-23T15:36:00.593Z,100834.56
2022-08-23T15:41:03.491Z,100814.97
2022-08-23T15:46:07.441Z,100817.94
2022-08-23T15:51:10.289Z,100814.41
2022-08-23T15:56:18.552Z,100819.59
2022-08-23T16:01:23.990Z,100811.06
2022-08-23T16:06:27.396Z,100818.63
2022-08-23T16:11:28.981Z,100815.66
2022-08-23T16:16:36.604Z,100810.72
2022-08-23T16:21:39.044Z,100806.75
2022-08-23T16:26:45.303Z,100815.03
2022-08-23T16:31:47.677Z,100810.63
2022-08-23T16:36:55.685Z,100811.63
2022-08-23T16:41:57.314Z,100817.28
2022-08-23T16:46:59.677Z,100828.50
2022-08-23T16:52:02.183Z,100819.56
2022-08-23T16:57:04.288Z,100825.47
2022-08-23T17:02:10.930Z,100826.41
2022-08-23T17:07:12.829Z,100825.59
2022-08-23T17:12:15.217Z,100823.47
2022-08-23T17:17:17.063Z,100825.66
2022-08-23T17:22:18.970Z,100824.84
2022-08-23T17:27:20.579Z,100823.59
2022-08-23T17:32:22.573Z,100832.16
2022-08-23T17:37:24.166Z,100843.69
2022-08-23T17:42:26.031Z,100838.81
2022-08-23T17:47:27.568Z,100847.47
2022-08-23T17:52:29.961Z,100854.97
2022-08-23T17:57:32.391Z,100851.44
2022-08-23T18:02:34.175Z,100860.00
2022-08-23T18:07:36.216Z,100868.69
2022-08-23T18:12:40.933Z,100871.97
2022-08-23T18:17:42.770Z,100882.06
2022-08-23T18:22:44.489Z,100881.78
2022-08-23T18:27:46.203Z,100895.59
2022-08-23T18:32:47.797Z,100895.91
2022-08-23T18:37:51.846Z,100898.75
2022-08-23T18:42:54.319Z,100903.75
2022-08-23T18:47:55.928Z,100911.50
2022-08-23T18:52:57.588Z,100919.50
2022-08-23T18:57:59.267Z,100917.34
2022-08-23T19:03:03.252Z,100926.84
2022-08-23T19:08:05.364Z,100934.69
2022-08-23T19:13:07.873Z,100932.84
2022-08-23T19:18:12.492Z,100936.00
2022-08-23T19:23:14.130Z,100944.97
2022-08-23T19:28:16.460Z,100950.63
2022-08-23T19:33:19.245Z,100952.81
2022-08-23T19:38:20.813Z,100958.06
2022-08-23T19:43:22.961Z,100953.19
2022-08-23T19:48:24.632Z,100951.84
2022-08-23T19:53:26.291Z,100965.50
2022-08-23T19:58:27.962Z,100968.31
2022-08-23T20:03:29.525Z,100973.31
2022-08-23T20:08:31.085Z,100979.44
2022-08-23T20:13:32.657Z,100983.97
2022-08-23T20:18:34.283Z,100994.31
2022-08-23T20:23:36.041Z,100990.94
2022-08-23T20:28:37.631Z,100986.69
2022-08-23T20:33:41.375Z,100992.41
2022-08-23T20:38:47.072Z,100994.19
2022-08-23T20:43:48.712Z,100990.16
2022-08-23T20:48:51.614Z,100997.19
2022-08-23T20:53:53.707Z,100997.47
2022-08-23T20:58:57.561Z,100986.75
2022-08-23T21:04:00.021Z,100990.00
2022-08-23T21:09:01.606Z,101004.47
2022-08-23T21:14:04.636Z,101004.50
2022-08-23T21:19:06.617Z,101004.47
2022-08-23T21:24:10.095Z,101000.16
2022-08-23T21:29:11.747Z,101011.94
2022-08-23T21:34:13.336Z,101018.66
2022-08-23T21:39:14.929Z,101013.56
2022-08-23T21:44:19.715Z,101021.03
2022-08-23T21:49:21.405Z,101016.19
2022-08-23T21:54:23.172Z,101016.41
2022-08-23T21:59:24.858Z,101014.22
2022-08-23T22:04:26.539Z,101012.41
2022-08-23T22:09:31.576Z,101012.09
2022-08-23T22:14:33.870Z,101024.81
2022-08-23T22:19:35.596Z,101016.22
2022-08-23T22:24:37.813Z,101021.53
2022-08-23T22:29:39.868Z,101022.81
2022-08-23T22:34:44.352Z,101026.00
2022-08-23T22:39:46.209Z,101021.69
2022-08-23T22:44:47.873Z,101022.81
2022-08-23T22:49:49.467Z,101029.50
2022-08-23T22:54:51.107Z,101027.63
2022-08-23T22:59:52.777Z,101026.75
2022-08-23T23:04:56.707Z,101023.41
2022-08-23T23:09:58.361Z,101029.09
2022-08-23T23:15:00.032Z,101026.63
2022-08-23T23:20:02.253Z,101027.94
2022-08-23T23:25:04.304Z,101026.75
2022-08-23T23:30:06.469Z,101024.59
2022-08-23T23:35:09.289Z,101024.72
2022-08-23T23:40:12.114Z,101029.56
2022-08-23T23:45:15.407Z,101033.97
2022-08-23T23:50:17.951Z,101044.31
2022-08-23T23:55:21.540Z,101037.72
